sensor_id;sensor_type;location;lat;lon;timestamp;pressure;altitude;pressure_sealevel;temperature;humidity
45357;BME280;31092;51.924;21.448;2023-04-20T00:00:06;100522.97;;;8.19;100.00
45357;BME280;31092;51.924;21.448;2023-04-20T00:02:38;100523.25;;;8.15;100.00
45357;BME280;31092;51.924;21.448;2023-04-20T00:05:04;100529.19;;;8.09;100.00
45357;BME280;31092;51.924;21.448;2023-04-20T00:07:31;100525.22;;;8.04;100.00
45357;BME280;31092;51.924;21.448;2023-04-20T00:09:57;100529.34;;;7.98;100.00
45357;BME280;31092;51.924;21.448;2023-04-20T00:12:22;100532.44;;;7.94;100.00
45357;BME280;31092;51.924;21.448;2023-04-20T00:14:47;100526.81;;;7.87;100.00
45357;BME280;31092;51.924;21.448;2023-04-20T00:17:13;100529.75;;;7.84;100.00
45357;BME280;31092;51.924;21.448;2023-04-20T00:19:38;100529.75;;;7.84;100.00
45357;BME280;31092;51.924;21.448;2023-04-20T00:22:03;100522.16;;;7.79;100.00
45357;BME280;31092;51.924;21.448;2023-04-20T00:24:29;100528.47;;;7.78;100.00
45357;BME280;31092;51.924;21.448;2023-04-20T00:26:54;100530.75;;;7.83;100.00
45357;BME280;31092;51.924;21.448;2023-04-20T00:29:20;100521.72;;;7.84;100.00
45357;BME280;31092;51.924;21.448;2023-04-20T00:31:46;100520.44;;;7.88;100.00
45357;BME280;31092;51.924;21.448;2023-04-20T00:34:11;100524.25;;;7.95;100.00
45357;BME280;31092;51.924;21.448;2023-04-20T00:36:37;100522.84;;;8.01;100.00
45357;BME280;31092;51.924;21.448;2023-04-20T00:39:02;100527.06;;;8.03;100.00
45357;BME280;31092;51.924;21.448;2023-04-20T00:41:29;100526.94;;;8.05;100.00
45357;BME280;31092;51.924;21.448;2023-04-20T00:43:54;100528.78;;;8.04;100.00
45357;BME280;31092;51.924;21.448;2023-04-20T00:46:20;100525.09;;;8.05;100.00
45357;BME280;31092;51.924;21.448;2023-04-20T00:48:45;100525.38;;;8.02;100.00
45357;BME280;31092;51.924;21.448;2023-04-20T00:51:11;100529.63;;;8.05;100.00
45357;BME280;31092;51.924;21.448;2023-04-20T00:53:36;100529.34;;;8.08;100.00
45357;BME280;31092;51.924;21.448;2023-04-20T00:56:02;100524.81;;;8.08;100.00
45357;BME280;31092;51.924;21.448;2023-04-20T00:58:27;100524.94;;;8.07;100.00
45357;BME280;31092;51.924;21.448;2023-04-20T01:00:53;100527.91;;;8.04;100.00
45357;BME280;31092;51.924;21.448;2023-04-20T01:03:18;100523.53;;;8.03;100.00
45357;BME280;31092;51.924;21.448;2023-04-20T01:05:44;100524.38;;;8.03;100.00
45357;BME280;31092;51.924;21.448;2023-04-20T01:08:09;100519.16;;;8.02;100.00
45357;BME280;31092;51.924;21.448;2023-04-20T01:10:35;100526.22;;;8.03;100.00
45357;BME280;31092;51.924;21.448;2023-04-20T01:13:00;100529.63;;;8.05;100.00
45357;BME280;31092;51.924;21.448;2023-04-20T01:15:27;100529.34;;;8.08;100.00
45357;BME280;31092;51.924;21.448;2023-04-20T01:17:52;100524.38;;;8.13;100.00
45357;BME280;31092;51.924;21.448;2023-04-20T01:20:17;100510.25;;;8.21;100.00
45357;BME280;31092;51.924;21.448;2023-04-20T01:22:45;100512.47;;;8.25;100.00
45357;BME280;31092;51.924;21.448;2023-04-20T01:25:11;100509.38;;;8.30;100.00
45357;BME280;31092;51.924;21.448;2023-04-20T01:27:36;100512.63;;;8.33;100.00
45357;BME280;31092;51.924;21.448;2023-04-20T01:30:01;100509.53;;;8.38;100.00
45357;BME280;31092;51.924;21.448;2023-04-20T01:32:27;100512.94;;;8.40;100.00
45357;BME280;31092;51.924;21.448;2023-04-20T01:34:52;100507.69;;;8.38;100.00
45357;BME280;31092;51.924;21.448;2023-04-20T01:37:17;100511.38;;;8.37;100.00
45357;BME280;31092;51.924;21.448;2023-04-20T01:39:43;100508.22;;;8.32;100.00
45357;BME280;31092;51.924;21.448;2023-04-20T01:42:09;100508.66;;;8.28;100.00
45357;BME280;31092;51.924;21.448;2023-04-20T01:44:35;100507.97;;;8.26;100.00
45357;BME280;31092;51.924;21.448;2023-04-20T01:47:00;100500.06;;;8.24;100.00
45357;BME280;31092;51.924;21.448;2023-04-20T01:49:25;100511.78;;;8.23;100.00
45357;BME280;31092;51.924;21.448;2023-04-20T01:51:51;100512.34;;;8.27;100.00
45357;BME280;31092;51.924;21.448;2023-04-20T01:54:16;100505.16;;;8.27;100.00
45357;BME280;31092;51.924;21.448;2023-04-20T01:56:41;100511.22;;;8.29;100.00
45357;BME280;31092;51.924;21.448;2023-04-20T01:59:07;100505.13;;;8.37;100.00
45357;BME280;31092;51.924;21.448;2023-04-20T02:01:32;100513.63;;;8.42;100.00
45357;BME280;31092;51.924;21.448;2023-04-20T02:03:58;100512.47;;;8.45;100.00
45357;BME280;31092;51.924;21.448;2023-04-20T02:06:23;100510.94;;;8.42;100.00
45357;BME280;31092;51.924;21.448;2023-04-20T02:08:48;100512.09;;;8.39;100.00
45357;BME280;31092;51.924;21.448;2023-04-20T02:11:14;100509.78;;;8.35;100.00
45357;BME280;31092;51.924;21.448;2023-04-20T02:13:39;100511.06;;;8.31;100.00
45357;BME280;31092;51.924;21.448;2023-04-20T02:16:04;100511.91;;;8.31;100.00
45357;BME280;31092;51.924;21.448;2023-04-20T02:18:30;100503.72;;;8.33;100.00
45357;BME280;31092;51.924;21.448;2023-04-20T02:20:57;100504.41;;;8.35;100.00
45357;BME280;31092;51.924;21.448;2023-04-20T02:23:22;100512.47;;;8.35;100.00
45357;BME280;31092;51.924;21.448;2023-04-20T02:25:47;100508.09;;;8.34;100.00
45357;BME280;31092;51.924;21.448;2023-04-20T02:28:13;100510.22;;;8.30;100.00
45357;BME280;31092;51.924;21.448;2023-04-20T02:30:38;100505.69;;;8.31;100.00
45357;BME280;31092;51.924;21.448;2023-04-20T02:33:04;100507.94;;;8.35;100.00
45357;BME280;31092;51.924;21.448;2023-04-20T02:35:29;100510.63;;;8.45;100.00
45357;BME280;31092;51.924;21.448;2023-04-20T02:37:54;100510.63;;;8.55;100.00
45357;BME280;31092;51.924;21.448;2023-04-20T02:40:20;100511.19;;;8.58;100.00
45357;BME280;31092;51.924;21.448;2023-04-20T02:42:45;100509.03;;;8.62;100.00
45357;BME280;31092;51.924;21.448;2023-04-20T02:45:10;100502.84;;;8.61;100.00
45357;BME280;31092;51.924;21.448;2023-04-20T02:47:36;100503.69;;;8.62;100.00
45357;BME280;31092;51.924;21.448;2023-04-20T02:50:01;100510.72;;;8.63;100.00
45357;BME280;31092;51.924;21.448;2023-04-20T02:52:27;100515.97;;;8.65;100.00
45357;BME280;31092;51.924;21.448;2023-04-20T02:54:52;100516.81;;;8.65;100.00
45357;BME280;31092;51.924;21.448;2023-04-20T02:57:17;100512.13;;;8.67;100.00
45357;BME280;31092;51.924;21.448;2023-04-20T02:59:43;100519.03;;;8.70;100.00
45357;BME280;31092;51.924;21.448;2023-04-20T03:02:08;100512.13;;;8.67;100.00
45357;BME280;31092;51.924;21.448;2023-04-20T03:04:33;100517.38;;;8.69;100.00
45357;BME280;31092;51.924;21.448;2023-04-20T03:06:59;100517.06;;;8.72;100.00
45357;BME280;31092;51.924;21.448;2023-04-20T03:09:25;100515.53;;;8.69;100.00
45357;BME280;31092;51.924;21.448;2023-04-20T03:11:50;100520.88;;;8.69;100.00
45357;BME280;31092;51.924;21.448;2023-04-20T03:14:16;100520.19;;;8.67;100.00
45357;BME280;31092;51.924;21.448;2023-04-20T03:16:41;100516.53;;;8.68;100.00
45357;BME280;31092;51.924;21.448;2023-04-20T03:19:07;100513.97;;;8.67;100.00
45357;BME280;31092;51.924;21.448;2023-04-20T03:21:32;100525.16;;;8.62;100.00
45357;BME280;31092;51.924;21.448;2023-04-20T03:23:58;100527.28;;;8.58;100.00
45357;BME280;31092;51.924;21.448;2023-04-20T03:26:23;100530.69;;;8.51;100.00
45357;BME280;31092;51.924;21.448;2023-04-20T03:28:49;100524.50;;;8.50;100.00
45357;BME280;31092;51.924;21.448;2023-04-20T03:31:15;100527.72;;;8.54;100.00
45357;BME280;31092;51.924;21.448;2023-04-20T03:33:40;100525.28;;;8.60;100.00
45357;BME280;31092;51.924;21.448;2023-04-20T03:36:06;100521.34;;;8.65;100.00
45357;BME280;31092;51.924;21.448;2023-04-20T03:38:31;100530.06;;;8.67;100.00
45357;BME280;31092;51.924;21.448;2023-04-20T03:40:56;100530.25;;;8.65;100.00
45357;BME280;31092;51.924;21.448;2023-04-20T03:43:22;100525.84;;;8.64;100.00
45357;BME280;31092;51.924;21.448;2023-04-20T03:45:47;100527.09;;;8.70;100.00
45357;BME280;31092;51.924;21.448;2023-04-20T03:48:13;100528.50;;;8.74;100.00
45357;BME280;31092;51.924;21.448;2023-04-20T03:50:38;100525.53;;;8.77;100.00
45357;BME280;31092;51.924;21.448;2023-04-20T03:53:05;100530.59;;;8.80;100.00
45357;BME280;31092;51.924;21.448;2023-04-20T03:55:31;100533.00;;;8.83;100.00
45357;BME280;31092;51.924;21.448;2023-04-20T03:57:56;100529.31;;;8.84;100.00
45357;BME280;31092;51.924;21.448;2023-04-20T04:00:21;100529.03;;;8.87;100.00
45357;BME280;31092;51.924;21.448;2023-04-20T04:02:47;100526.72;;;8.92;100.00
45357;BME280;31092;51.924;21.448;2023-04-20T04:05:12;100530.66;;;8.98;100.00
45357;BME280;31092;51.924;21.448;2023-04-20T04:07:37;100531.22;;;9.01;100.00
45357;BME280;31092;51.924;21.448;2023-04-20T04:10:03;100534.44;;;9.05;100.00
45357;BME280;31092;51.924;21.448;2023-04-20T04:12:29;100533.63;;;9.04;100.00
45357;BME280;31092;51.924;21.448;2023-04-20T04:14:55;100532.78;;;9.04;100.00
45357;BME280;31092;51.924;21.448;2023-04-20T04:17:20;100543.53;;;9.04;100.00
45357;BME280;31092;51.924;21.448;2023-04-20T04:19:45;100539.28;;;9.01;100.00
45357;BME280;31092;51.924;21.448;2023-04-20T04:22:11;100545.50;;;9.02;100.00
45357;BME280;31092;51.924;21.448;2023-04-20T04:24:36;100548.34;;;9.00;100.00
45357;BME280;31092;51.924;21.448;2023-04-20T04:27:03;100547.34;;;9.01;100.00
45357;BME280;31092;51.924;21.448;2023-04-20T04:29:29;100549.03;;;9.02;100.00
45357;BME280;31092;51.924;21.448;2023-04-20T04:31:55;100550.56;;;9.05;100.00
45357;BME280;31092;51.924;21.448;2023-04-20T04:34:22;100549.44;;;9.07;100.00
45357;BME280;31092;51.924;21.448;2023-04-20T04:36:48;100550.13;;;9.09;100.00
45357;BME280;31092;51.924;21.448;2023-04-20T04:39:13;100547.31;;;9.11;100.00
45357;BME280;31092;51.924;21.448;2023-04-20T04:41:39;100558.59;;;9.15;100.00
45357;BME280;31092;51.924;21.448;2023-04-20T04:44:04;100564.53;;;9.18;100.00
45357;BME280;31092;51.924;21.448;2023-04-20T04:46:30;100560.66;;;9.21;100.00
45357;BME280;31092;51.924;21.448;2023-04-20T04:48:56;100569.28;;;9.24;100.00
45357;BME280;31092;51.924;21.448;2023-04-20T04:51:24;100569.81;;;9.28;100.00
45357;BME280;31092;51.924;21.448;2023-04-20T04:53:50;100573.91;;;9.32;100.00
45357;BME280;31092;51.924;21.448;2023-04-20T04:56:15;100572.63;;;9.36;100.00
45357;BME280;31092;51.924;21.448;2023-04-20T04:58:42;100581.09;;;9.41;100.00
45357;BME280;31092;51.924;21.448;2023-04-20T05:01:08;100572.97;;;9.51;100.00
45357;BME280;31092;51.924;21.448;2023-04-20T05:03:33;100580.13;;;9.60;100.00
45357;BME280;31092;51.924;21.448;2023-04-20T05:05:58;100576.81;;;9.66;100.00
45357;BME280;31092;51.924;21.448;2023-04-20T05:08:23;100582.28;;;9.74;100.00
45357;BME280;31092;51.924;21.448;2023-04-20T05:10:49;100575.47;;;9.80;100.00
45357;BME280;31092;51.924;21.448;2023-04-20T05:13:14;100576.72;;;9.86;100.00
45357;BME280;31092;51.924;21.448;2023-04-20T05:15:40;100581.47;;;9.92;100.00
45357;BME280;31092;51.924;21.448;2023-04-20T05:18:05;100577.47;;;9.96;100.00
45357;BME280;31092;51.924;21.448;2023-04-20T05:20:30;100584.25;;;10.00;100.00
45357;BME280;31092;51.924;21.448;2023-04-20T05:22:56;100585.75;;;10.02;100.00
45357;BME280;31092;51.924;21.448;2023-04-20T05:25:21;100586.16;;;10.07;100.00
45357;BME280;31092;51.924;21.448;2023-04-20T05:27:46;100592.75;;;10.13;100.00
45357;BME280;31092;51.924;21.448;2023-04-20T05:30:12;100595.69;;;10.20;100.00
45357;BME280;31092;51.924;21.448;2023-04-20T05:32:37;100588.56;;;10.28;100.00
45357;BME280;31092;51.924;21.448;2023-04-20T05:35:02;100587.78;;;10.36;100.00
45357;BME280;31092;51.924;21.448;2023-04-20T05:37:28;100586.16;;;10.43;100.00
45357;BME280;31092;51.924;21.448;2023-04-20T05:39:53;100594.47;;;10.50;100.00
45357;BME280;31092;51.924;21.448;2023-04-20T05:42:18;100597.22;;;10.58;100.00
45357;BME280;31092;51.924;21.448;2023-04-20T05:44:44;100593.72;;;10.66;100.00
45357;BME280;31092;51.924;21.448;2023-04-20T05:47:09;100590.41;;;10.72;100.00
45357;BME280;31092;51.924;21.448;2023-04-20T05:49:35;100590.63;;;10.78;100.00
45357;BME280;31092;51.924;21.448;2023-04-20T05:52:00;100591.50;;;10.87;100.00
45357;BME280;31092;51.924;21.448;2023-04-20T05:54:26;100588.00;;;10.95;100.00
45357;BME280;31092;51.924;21.448;2023-04-20T05:56:52;100589.06;;;11.02;100.00
45357;BME280;31092;51.924;21.448;2023-04-20T05:59:18;100601.41;;;11.13;100.00
45357;BME280;31092;51.924;21.448;2023-04-20T06:01:43;100600.47;;;11.22;100.00
45357;BME280;31092;51.924;21.448;2023-04-20T06:04:09;100599.34;;;11.33;100.00
45357;BME280;31092;51.924;21.448;2023-04-20T06:06:34;100608.28;;;11.41;100.00
45357;BME280;31092;51.924;21.448;2023-04-20T06:08:59;100607.16;;;11.52;100.00
45357;BME280;31092;51.924;21.448;2023-04-20T06:11:25;100607.88;;;11.62;100.00
45357;BME280;31092;51.924;21.448;2023-04-20T06:13:50;100607.03;;;11.70;100.00
45357;BME280;31092;51.924;21.448;2023-04-20T06:16:15;100617.03;;;11.78;100.00
45357;BME280;31092;51.924;21.448;2023-04-20T06:18:41;100615.41;;;11.85;100.00
45357;BME280;31092;51.924;21.448;2023-04-20T06:21:08;100617.09;;;11.94;100.00
45357;BME280;31092;51.924;21.448;2023-04-20T06:23:33;100621.00;;;12.00;100.00
45357;BME280;31092;51.924;21.448;2023-04-20T06:26:00;100627.75;;;12.04;100.00
45357;BME280;31092;51.924;21.448;2023-04-20T06:28:25;100620.69;;;12.11;100.00
45357;BME280;31092;51.924;21.448;2023-04-20T06:45:57;100624.09;;;12.45;100.00
45357;BME280;31092;51.924;21.448;2023-04-20T06:48:23;100621.38;;;12.54;100.00
45357;BME280;31092;51.924;21.448;2023-04-20T06:50:59;100625.59;;;12.64;100.00
45357;BME280;31092;51.924;21.448;2023-04-20T06:53:25;100621.19;;;12.80;100.00
45357;BME280;31092;51.924;21.448;2023-04-20T06:56:12;100617.97;;;12.92;100.00
45357;BME280;31092;51.924;21.448;2023-04-20T06:58:37;100620.78;;;13.15;100.00
45357;BME280;31092;51.924;21.448;2023-04-20T07:01:03;100625.31;;;13.39;100.00
45357;BME280;31092;51.924;21.448;2023-04-20T07:03:28;100621.81;;;13.62;100.00
45357;BME280;31092;51.924;21.448;2023-04-20T07:05:55;100616.38;;;13.70;100.00
45357;BME280;31092;51.924;21.448;2023-04-20T07:08:43;100629.44;;;13.67;100.00
45357;BME280;31092;51.924;21.448;2023-04-20T07:11:11;100629.44;;;13.58;100.00
45357;BME280;31092;51.924;21.448;2023-04-20T07:13:47;100629.44;;;13.58;100.00
45357;BME280;31092;51.924;21.448;2023-04-20T07:16:14;100627.56;;;13.59;100.00
45357;BME280;31092;51.924;21.448;2023-04-20T07:21:16;100628.81;;;13.87;100.00
45357;BME280;31092;51.924;21.448;2023-04-20T07:23:41;100630.28;;;14.21;100.00
45357;BME280;31092;51.924;21.448;2023-04-20T07:26:08;100631.75;;;14.55;100.00
45357;BME280;31092;51.924;21.448;2023-04-20T07:28:33;100618.44;;;14.83;100.00
45357;BME280;31092;51.924;21.448;2023-04-20T07:30:58;100623.03;;;14.97;100.00
45357;BME280;31092;51.924;21.448;2023-04-20T07:33:24;100621.38;;;15.11;100.00
45357;BME280;31092;51.924;21.448;2023-04-20T07:35:53;100623.81;;;15.21;100.00
45357;BME280;31092;51.924;21.448;2023-04-20T07:38:19;100624.97;;;15.26;100.00
45357;BME280;31092;51.924;21.448;2023-04-20T07:40:44;100623.56;;;15.30;100.00
45357;BME280;31092;51.924;21.448;2023-04-20T07:43:10;100623.06;;;15.42;100.00
45357;BME280;31092;51.924;21.448;2023-04-20T07:45:37;100623.53;;;15.60;100.00
45357;BME280;31092;51.924;21.448;2023-04-20T07:48:03;100615.13;;;15.70;100.00
45357;BME280;31092;51.924;21.448;2023-04-20T07:50:29;100616.22;;;15.90;100.00
45357;BME280;31092;51.924;21.448;2023-04-20T07:52:55;100615.78;;;16.08;100.00
45357;BME280;31092;51.924;21.448;2023-04-20T07:55:20;100621.47;;;16.35;100.00
45357;BME280;31092;51.924;21.448;2023-04-20T07:57:45;100628.06;;;16.47;100.00
45357;BME280;31092;51.924;21.448;2023-04-20T08:00:11;100632.09;;;16.51;100.00
45357;BME280;31092;51.924;21.448;2023-04-20T08:02:37;100627.81;;;16.42;100.00
45357;BME280;31092;51.924;21.448;2023-04-20T08:05:03;100620.63;;;16.34;100.00
45357;BME280;31092;51.924;21.448;2023-04-20T08:07:29;100626.22;;;16.26;100.00
45357;BME280;31092;51.924;21.448;2023-04-20T08:09:54;100625.31;;;16.40;100.00
45357;BME280;31092;51.924;21.448;2023-04-20T08:12:20;100617.19;;;16.47;100.00
45357;BME280;31092;51.924;21.448;2023-04-20T08:14:46;100610.81;;;16.61;100.00
45357;BME280;31092;51.924;21.448;2023-04-20T08:17:11;100627.13;;;16.76;100.00
45357;BME280;31092;51.924;21.448;2023-04-20T08:19:37;100625.06;;;16.85;100.00
45357;BME280;31092;51.924;21.448;2023-04-20T08:22:05;100625.56;;;16.95;100.00
45357;BME280;31092;51.924;21.448;2023-04-20T08:24:30;100612.25;;;17.07;100.00
45357;BME280;31092;51.924;21.448;2023-04-20T08:26:56;100615.44;;;17.52;100.00
45357;BME280;31092;51.924;21.448;2023-04-20T08:29:23;100610.16;;;17.85;100.00
45357;BME280;31092;51.924;21.448;2023-04-20T08:31:49;100613.13;;;17.90;100.00
45357;BME280;31092;51.924;21.448;2023-04-20T08:34:14;100613.41;;;18.15;100.00
45357;BME280;31092;51.924;21.448;2023-04-20T08:36:39;100610.28;;;18.31;100.00
45357;BME280;31092;51.924;21.448;2023-04-20T08:39:06;100616.25;;;17.87;100.00
45357;BME280;31092;51.924;21.448;2023-04-20T08:41:31;100614.50;;;17.73;100.00
45357;BME280;31092;51.924;21.448;2023-04-20T08:43:57;100612.09;;;17.98;100.00
45357;BME280;31092;51.924;21.448;2023-04-20T08:46:23;100610.69;;;18.15;100.00
45357;BME280;31092;51.924;21.448;2023-04-20T08:48:48;100613.22;;;18.36;100.00
45357;BME280;31092;51.924;21.448;2023-04-20T08:51:15;100624.59;;;18.47;100.00
45357;BME280;31092;51.924;21.448;2023-04-20T08:53:42;100616.81;;;18.63;100.00
45357;BME280;31092;51.924;21.448;2023-04-20T08:56:07;100610.75;;;18.95;100.00
45357;BME280;31092;51.924;21.448;2023-04-20T08:58:32;100619.75;;;19.08;100.00
45357;BME280;31092;51.924;21.448;2023-04-20T09:00:58;100607.06;;;19.47;100.00
45357;BME280;31092;51.924;21.448;2023-04-20T09:03:34;100613.94;;;19.63;100.00
45357;BME280;31092;51.924;21.448;2023-04-20T09:06:00;100608.72;;;19.48;100.00
45357;BME280;31092;51.924;21.448;2023-04-20T09:08:36;100612.31;;;19.42;100.00
45357;BME280;31092;51.924;21.448;2023-04-20T09:11:02;100604.06;;;19.55;100.00
45357;BME280;31092;51.924;21.448;2023-04-20T09:13:27;100592.69;;;19.78;100.00
45357;BME280;31092;51.924;21.448;2023-04-20T09:15:53;100590.22;;;20.02;100.00
45357;BME280;31092;51.924;21.448;2023-04-20T09:18:18;100588.66;;;20.51;100.00
45357;BME280;31092;51.924;21.448;2023-04-20T09:20:44;100593.84;;;20.84;100.00
45357;BME280;31092;51.924;21.448;2023-04-20T09:23:10;100590.25;;;21.27;100.00
45357;BME280;31092;51.924;21.448;2023-04-20T09:25:36;100592.78;;;21.28;100.00
45357;BME280;31092;51.924;21.448;2023-04-20T09:28:01;100595.91;;;21.50;100.00
45357;BME280;31092;51.924;21.448;2023-04-20T09:33:26;100591.56;;;22.10;100.00
45357;BME280;31092;51.924;21.448;2023-04-20T09:35:52;100598.84;;;21.86;92.00
45357;BME280;31092;51.924;21.448;2023-04-20T09:38:23;100606.13;;;21.43;87.46
45357;BME280;31092;51.924;21.448;2023-04-20T09:40:49;100598.25;;;21.28;87.17
45357;BME280;31092;51.924;21.448;2023-04-20T09:43:18;100604.94;;;21.14;86.91
45357;BME280;31092;51.924;21.448;2023-04-20T09:45:44;100594.19;;;21.13;87.23
45357;BME280;31092;51.924;21.448;2023-04-20T09:48:10;100593.66;;;21.22;90.84
45357;BME280;31092;51.924;21.448;2023-04-20T09:50:36;100590.72;;;21.24;90.35
45357;BME280;31092;51.924;21.448;2023-04-20T09:53:02;100599.69;;;21.31;88.86
45357;BME280;31092;51.924;21.448;2023-04-20T09:55:29;100593.66;;;21.04;83.67
45357;BME280;31092;51.924;21.448;2023-04-20T09:57:54;100609.63;;;19.94;82.30
45357;BME280;31092;51.924;21.448;2023-04-20T10:00:20;100606.63;;;19.57;85.20
45357;BME280;31092;51.924;21.448;2023-04-20T10:02:46;100599.69;;;19.54;87.45
45357;BME280;31092;51.924;21.448;2023-04-20T10:05:12;100605.34;;;19.66;85.87
45357;BME280;31092;51.924;21.448;2023-04-20T10:07:37;100597.50;;;19.76;83.63
45357;BME280;31092;51.924;21.448;2023-04-20T10:10:07;100593.09;;;19.75;85.88
45357;BME280;31092;51.924;21.448;2023-04-20T10:12:33;100595.22;;;19.73;83.54
45357;BME280;31092;51.924;21.448;2023-04-20T10:15:10;100593.53;;;18.94;77.34
45357;BME280;31092;51.924;21.448;2023-04-20T10:17:36;100602.53;;;18.55;79.03
45357;BME280;31092;51.924;21.448;2023-04-20T10:20:01;100611.59;;;18.75;81.03
45357;BME280;31092;51.924;21.448;2023-04-20T10:22:29;100604.25;;;18.76;83.13
45357;BME280;31092;51.924;21.448;2023-04-20T10:25:01;100590.97;;;19.12;84.34
45357;BME280;31092;51.924;21.448;2023-04-20T10:27:27;100582.88;;;19.64;84.03
45357;BME280;31092;51.924;21.448;2023-04-20T10:29:52;100589.50;;;20.13;83.79
45357;BME280;31092;51.924;21.448;2023-04-20T10:32:24;100581.56;;;20.37;83.11
45357;BME280;31092;51.924;21.448;2023-04-20T10:35:05;100570.13;;;20.78;82.52
45357;BME280;31092;51.924;21.448;2023-04-20T10:37:31;100567.72;;;21.07;83.18
45357;BME280;31092;51.924;21.448;2023-04-20T10:39:57;100563.22;;;21.31;83.73
45357;BME280;31092;51.924;21.448;2023-04-20T10:42:22;100558.38;;;21.51;81.12
45357;BME280;31092;51.924;21.448;2023-04-20T10:44:48;100562.88;;;21.45;79.64
45357;BME280;31092;51.924;21.448;2023-04-20T10:47:15;100574.28;;;21.24;78.40
45357;BME280;31092;51.924;21.448;2023-04-20T10:49:40;100572.19;;;21.01;75.98
45357;BME280;31092;51.924;21.448;2023-04-20T10:52:06;100574.53;;;20.79;75.70
45357;BME280;31092;51.924;21.448;2023-04-20T10:54:40;100558.56;;;21.13;78.36
45357;BME280;31092;51.924;21.448;2023-04-20T10:57:05;100562.59;;;21.35;78.69
45357;BME280;31092;51.924;21.448;2023-04-20T10:59:31;100555.78;;;21.19;74.51
45357;BME280;31092;51.924;21.448;2023-04-20T11:01:59;100559.63;;;20.50;70.39
45357;BME280;31092;51.924;21.448;2023-04-20T11:04:31;100577.97;;;19.73;71.77
45357;BME280;31092;51.924;21.448;2023-04-20T11:07:04;100559.09;;;19.58;75.18
45357;BME280;31092;51.924;21.448;2023-04-20T11:09:31;100557.38;;;20.08;75.81
45357;BME280;31092;51.924;21.448;2023-04-20T11:12:02;100554.06;;;20.31;68.99
45357;BME280;31092;51.924;21.448;2023-04-20T11:14:28;100555.81;;;20.51;65.37
45357;BME280;31092;51.924;21.448;2023-04-20T11:16:53;100557.88;;;20.55;60.83
45357;BME280;31092;51.924;21.448;2023-04-20T11:19:26;100545.94;;;19.87;55.04
45357;BME280;31092;51.924;21.448;2023-04-20T11:21:52;100564.34;;;19.53;58.75
45357;BME280;31092;51.924;21.448;2023-04-20T11:24:18;100558.50;;;19.94;63.28
45357;BME280;31092;51.924;21.448;2023-04-20T11:26:44;100555.28;;;20.36;65.39
45357;BME280;31092;51.924;21.448;2023-04-20T11:29:09;100543.63;;;20.72;68.34
45357;BME280;31092;51.924;21.448;2023-04-20T11:31:35;100541.66;;;20.79;66.39
45357;BME280;31092;51.924;21.448;2023-04-20T11:34:01;100536.28;;;21.09;66.79
45357;BME280;31092;51.924;21.448;2023-04-20T11:36:26;100541.63;;;21.22;63.93
45357;BME280;31092;51.924;21.448;2023-04-20T11:38:53;100539.88;;;21.28;62.81
45357;BME280;31092;51.924;21.448;2023-04-20T11:41:20;100546.06;;;21.42;63.33
45357;BME280;31092;51.924;21.448;2023-04-20T11:43:45;100539.81;;;21.53;62.42
45357;BME280;31092;51.924;21.448;2023-04-20T11:46:18;100543.72;;;21.45;61.05
45357;BME280;31092;51.924;21.448;2023-04-20T11:48:46;100538.69;;;21.42;60.36
45357;BME280;31092;51.924;21.448;2023-04-20T11:51:13;100538.38;;;21.14;59.70
45357;BME280;31092;51.924;21.448;2023-04-20T11:53:38;100548.16;;;20.60;60.83
45357;BME280;31092;51.924;21.448;2023-04-20T11:56:04;100548.34;;;20.08;58.42
45357;BME280;31092;51.924;21.448;2023-04-20T11:58:29;100556.16;;;19.53;59.15
45357;BME280;31092;51.924;21.448;2023-04-20T12:00:55;100550.66;;;19.08;57.51
45357;BME280;31092;51.924;21.448;2023-04-20T12:03:21;100543.16;;;18.77;57.23
45357;BME280;31092;51.924;21.448;2023-04-20T12:05:46;100546.50;;;18.65;57.61
45357;BME280;31092;51.924;21.448;2023-04-20T12:08:12;100546.50;;;18.52;58.10
45357;BME280;31092;51.924;21.448;2023-04-20T12:10:37;100551.53;;;18.42;61.26
45357;BME280;31092;51.924;21.448;2023-04-20T12:13:04;100544.00;;;18.37;59.70
45357;BME280;31092;51.924;21.448;2023-04-20T12:15:29;100545.03;;;18.30;59.55
45357;BME280;31092;51.924;21.448;2023-04-20T12:17:55;100547.13;;;18.21;60.60
45357;BME280;31092;51.924;21.448;2023-04-20T12:20:20;100551.53;;;18.09;62.76
45357;BME280;31092;51.924;21.448;2023-04-20T12:22:46;100547.13;;;18.08;61.39
45357;BME280;31092;51.924;21.448;2023-04-20T12:25:11;100540.63;;;18.49;62.64
45357;BME280;31092;51.924;21.448;2023-04-20T12:27:36;100540.16;;;19.05;64.59
45357;BME280;31092;51.924;21.448;2023-04-20T12:30:02;100517.47;;;19.56;63.71
45357;BME280;31092;51.924;21.448;2023-04-20T12:32:28;100517.63;;;20.06;64.43
45357;BME280;31092;51.924;21.448;2023-04-20T12:34:53;100507.94;;;20.35;61.94
45357;BME280;31092;51.924;21.448;2023-04-20T12:37:19;100517.38;;;20.39;56.32
45357;BME280;31092;51.924;21.448;2023-04-20T12:39:44;100510.50;;;20.30;56.79
45357;BME280;31092;51.924;21.448;2023-04-20T12:42:10;100509.44;;;20.31;57.53
45357;BME280;31092;51.924;21.448;2023-04-20T12:44:35;100505.28;;;20.53;60.68
45357;BME280;31092;51.924;21.448;2023-04-20T12:47:01;100492.59;;;20.59;55.84
45357;BME280;31092;51.924;21.448;2023-04-20T12:49:26;100494.09;;;20.55;54.76
45357;BME280;31092;51.924;21.448;2023-04-20T12:51:51;100494.81;;;20.44;53.25